createdAt,value
2018-04-06T00:01:04.669Z,99268.67
2018-04-06T00:03:32.333Z,99271.55
2018-04-06T00:06:00.407Z,99276.98
2018-04-06T00:08:28.053Z,99279.70
2018-04-06T00:10:55.673Z,99275.25
2018-04-06T00:13:23.597Z,99280.52
2018-04-06T00:15:51.253Z,99270.68
2018-04-06T00:18:18.883Z,99270.63
2018-04-06T00:20:46.776Z,99277.80
2018-04-06T00:23:14.439Z,99287.20
2018-04-06T00:25:42.117Z,99282.58
2018-04-06T00:28:09.779Z,99285.70
2018-04-06T00:30:37.414Z,99281.94
2018-04-06T00:33:05.038Z,99279.72
2018-04-06T00:35:32.766Z,99274.39
2018-04-06T00:38:00.596Z,99278.39
2018-04-06T00:40:28.322Z,99278.81
2018-04-06T00:42:56.005Z,99280.05
2018-04-06T00:45:23.719Z,99274.00
2018-04-06T00:47:51.688Z,99268.53
2018-04-06T00:50:19.349Z,99273.01
2018-04-06T00:52:47.011Z,99271.55
2018-04-06T00:55:14.865Z,99280.31
2018-04-06T00:57:42.444Z,99270.77
2018-04-06T01:00:10.125Z,99268.61
2018-04-06T01:02:37.915Z,99262.88
2018-04-06T01:05:05.542Z,99268.70
2018-04-06T01:07:33.191Z,99267.63
2018-04-06T01:10:00.813Z,99271.84
2018-04-06T01:12:28.685Z,99266.78
2018-04-06T01:14:56.574Z,99275.86
2018-04-06T01:17:24.293Z,99277.95
2018-04-06T01:19:51.900Z,99277.42
2018-04-06T01:22:19.561Z,99281.92
2018-04-06T01:24:47.238Z,99284.64
2018-04-06T01:27:15.085Z,99285.33
2018-04-06T01:29:42.767Z,99286.23
2018-04-06T01:32:10.427Z,99290.09
2018-04-06T01:34:38.080Z,99289.34
2018-04-06T01:37:05.654Z,99298.73
2018-04-06T01:39:33.412Z,99299.11
2018-04-06T01:42:01.076Z,99306.39
2018-04-06T01:44:28.725Z,99311.45
2018-04-06T01:46:56.669Z,99306.81
2018-04-06T01:49:24.458Z,99310.64
2018-04-06T01:51:52.045Z,99309.09
2018-04-06T01:54:19.798Z,99317.19
2018-04-06T01:56:47.460Z,99322.61
2018-04-06T01:59:15.120Z,99314.86
2018-04-06T02:01:42.921Z,99322.80
2018-04-06T02:04:10.761Z,99328.64
2018-04-06T02:06:38.519Z,99332.77
2018-04-06T02:09:06.384Z,99327.83
2018-04-06T02:11:34.103Z,99335.66
2018-04-06T02:14:01.680Z,99328.97
2018-04-06T02:16:29.371Z,99329.89
2018-04-06T02:18:57.212Z,99341.11
2018-04-06T02:21:24.902Z,99345.59
2018-04-06T02:23:52.623Z,99354.61
2018-04-06T02:26:20.417Z,99352.05
2018-04-06T02:28:48.083Z,99349.62
2018-04-06T02:31:15.757Z,99346.86
2018-04-06T02:33:43.413Z,99346.96
2018-04-06T02:36:11.076Z,99352.38
2018-04-06T02:38:38.804Z,99349.20
2018-04-06T02:41:06.604Z,99352.30
2018-04-06T02:43:34.267Z,99353.72
2018-04-06T02:46:01.889Z,99360.75
2018-04-06T02:48:29.590Z,99356.67
2018-04-06T02:50:57.181Z,99359.72
2018-04-06T02:53:25.026Z,99365.90
2018-04-06T02:55:52.788Z,99376.33
2018-04-06T02:58:20.391Z,99376.91
2018-04-06T03:00:48.010Z,99377.56
2018-04-06T03:03:15.755Z,99376.67
2018-04-06T03:05:43.422Z,99380.80
2018-04-06T03:08:11.093Z,99377.41
2018-04-06T03:10:38.683Z,99357.29
2018-04-06T03:13:06.485Z,99376.53
2018-04-06T03:15:34.455Z,99387.73
2018-04-06T03:18:02.155Z,99388.86
2018-04-06T03:20:29.810Z,99398.25
2018-04-06T03:22:57.528Z,99404.64
2018-04-06T03:25:25.354Z,99400.83
2018-04-06T03:27:53.012Z,99407.19
2018-04-06T03:30:20.625Z,99406.52
2018-04-06T03:32:48.206Z,99404.86
2018-04-06T03:35:15.991Z,99405.77
2018-04-06T03:37:43.626Z,99404.89
2018-04-06T03:40:11.325Z,99411.81
2018-04-06T03:42:39.088Z,99412.28
2018-04-06T03:45:06.854Z,99422.80
2018-04-06T03:47:34.514Z,99433.62
2018-04-06T03:50:02.176Z,99430.11
2018-04-06T03:52:29.907Z,99437.47
2018-04-06T03:54:57.899Z,99444.94
2018-04-06T03:57:25.574Z,99443.41
2018-04-06T03:59:53.226Z,99447.53
2018-04-06T04:02:20.855Z,99452.13
2018-04-06T04:04:48.554Z,99452.03
2018-04-06T04:07:16.211Z,99451.63
2018-04-06T04:09:43.875Z,99455.66
2018-04-06T04:12:11.538Z,99456.20
2018-04-06T04:14:39.383Z,99464.02
2018-04-06T04:17:07.065Z,99456.27
2018-04-06T04:19:34.736Z,99454.58
2018-04-06T04:22:02.351Z,99455.61
2018-04-06T04:24:30.050Z,99453.86
2018-04-06T04:26:57.649Z,99455.23
2018-04-06T04:29:25.561Z,99460.43
2018-04-06T04:31:53.249Z,99451.00
2018-04-06T04:34:20.906Z,99454.03
2018-04-06T04:36:48.577Z,99446.27
2018-04-06T04:39:16.236Z,99447.96
2018-04-06T04:41:43.959Z,99432.62
2018-04-06T04:44:11.976Z,99442.33
2018-04-06T04:46:39.877Z,99448.21
2018-04-06T04:49:07.495Z,99448.43
2018-04-06T04:51:35.167Z,99442.89
2018-04-06T04:54:02.823Z,99445.97
2018-04-06T04:56:30.422Z,99439.01
2018-04-06T04:58:58.138Z,99447.30
2018-04-06T05:01:25.807Z,99445.37
2018-04-06T05:03:53.548Z,99447.22
2018-04-06T05:06:21.224Z,99440.48
2018-04-06T05:08:49.030Z,99433.00
2018-04-06T05:11:16.671Z,99432.95
2018-04-06T05:13:44.390Z,99434.41
2018-04-06T05:16:12.198Z,99438.33
2018-04-06T05:18:39.787Z,99435.76
2018-04-06T05:21:07.411Z,99443.59
2018-04-06T05:23:35.187Z,99440.39
2018-04-06T05:26:03.054Z,99439.39
2018-04-06T05:28:30.710Z,99439.58
2018-04-06T05:30:58.560Z,99433.81
2018-04-06T05:33:26.236Z,99449.19
2018-04-06T05:35:53.906Z,99462.83
2018-04-06T05:38:21.549Z,99465.44
2018-04-06T05:40:49.231Z,99470.50
2018-04-06T05:43:16.853Z,99471.34
2018-04-06T05:45:44.682Z,99472.60
2018-04-06T05:48:12.424Z,99471.66
2018-04-06T05:50:40.011Z,99469.33
2018-04-06T05:53:07.747Z,99474.12
2018-04-06T05:55:35.603Z,99471.88
2018-04-06T05:58:03.272Z,99469.00
2018-04-06T06:00:30.927Z,99472.25
2018-04-06T06:02:58.533Z,99478.22
2018-04-06T06:05:26.255Z,99479.28
2018-04-06T06:07:53.920Z,99479.13
2018-04-06T06:10:21.578Z,99474.86
2018-04-06T06:12:49.163Z,99473.86
2018-04-06T06:15:16.786Z,99473.66
2018-04-06T06:17:44.573Z,99475.20
2018-04-06T06:20:12.236Z,99480.84
2018-04-06T06:22:39.875Z,99484.05
2018-04-06T06:25:07.455Z,99486.89
2018-04-06T06:27:35.218Z,99483.67
2018-04-06T06:30:03.091Z,99489.36
2018-04-06T06:32:30.881Z,99485.53
2018-04-06T06:34:58.840Z,99489.23
2018-04-06T06:37:26.687Z,99487.48
2018-04-06T06:39:54.483Z,99497.02
2018-04-06T06:42:22.332Z,99493.84
2018-04-06T06:44:50.086Z,99495.67
2018-04-06T06:47:17.758Z,99492.79
2018-04-06T06:49:45.414Z,99485.76
2018-04-06T06:52:13.081Z,99483.44
2018-04-06T06:54:40.736Z,99486.94
2018-04-06T06:57:08.579Z,99488.63
2018-04-06T06:59:36.471Z,99490.61
2018-04-06T07:02:04.058Z,99490.77
2018-04-06T07:04:31.673Z,99489.83
2018-04-06T07:06:59.294Z,99491.18
2018-04-06T07:09:26.911Z,99495.97
2018-04-06T07:11:54.578Z,99505.53
2018-04-06T07:14:22.241Z,99505.96
2018-04-06T07:16:49.891Z,99497.93
2018-04-06T07:19:17.460Z,99508.50
2018-04-06T07:21:45.222Z,99514.11
2018-04-06T07:24:12.890Z,99516.75
2018-04-06T07:26:40.556Z,99514.88
2018-04-06T07:29:08.216Z,99509.94
2018-04-06T07:31:36.065Z,99513.94
2018-04-06T07:34:03.742Z,99515.76
2018-04-06T07:36:34.277Z,99515.96
2018-04-06T07:39:01.922Z,99511.44
2018-04-06T07:41:29.801Z,99505.59
2018-04-06T07:43:57.550Z,99507.61
2018-04-06T07:46:25.328Z,99499.97
2018-04-06T07:48:52.993Z,99504.91
2018-04-06T07:51:20.854Z,99506.16
2018-04-06T07:53:48.510Z,99501.62
2018-04-06T07:56:16.182Z,99502.40
2018-04-06T07:58:43.835Z,99499.27
2018-04-06T08:01:11.817Z,99497.72
2018-04-06T08:03:39.414Z,99499.86
2018-04-06T08:06:07.244Z,99496.14
2018-04-06T08:08:34.908Z,99497.97
2018-04-06T08:11:02.741Z,99500.72
2018-04-06T08:13:30.466Z,99505.41
2018-04-06T08:15:58.047Z,99507.50
2018-04-06T08:18:25.639Z,99508.41
2018-04-06T08:20:53.611Z,99515.83
2018-04-06T08:23:21.319Z,99519.63
2018-04-06T08:25:49.042Z,99516.37
2018-04-06T08:28:16.818Z,99527.22
2018-04-06T08:30:44.474Z,99527.77
2018-04-06T08:33:12.194Z,99533.38
2018-04-06T08:35:40.005Z,99536.41
2018-04-06T08:38:07.692Z,99536.91
2018-04-06T08:40:35.543Z,99537.05
2018-04-06T08:43:03.161Z,99531.38
2018-04-06T08:45:30.859Z,99529.34
2018-04-06T08:47:58.697Z,99532.16
2018-04-06T08:50:26.438Z,99518.58
2018-04-06T08:52:54.058Z,99533.53
2018-04-06T08:55:21.625Z,99532.43
2018-04-06T08:57:49.527Z,99530.87
2018-04-06T09:00:17.247Z,99533.51
2018-04-06T09:02:44.998Z,99534.61
2018-04-06T09:05:12.767Z,99533.06
2018-04-06T09:07:40.428Z,99537.50
2018-04-06T09:10:08.102Z,99529.21
2018-04-06T09:12:35.751Z,99531.67
2018-04-06T09:15:03.415Z,99534.56
2018-04-06T09:17:31.066Z,99524.94
2018-04-06T09:19:58.842Z,99523.84
2018-04-06T09:22:26.511Z,99525.97
2018-04-06T09:24:54.170Z,99525.33
2018-04-06T09:27:21.797Z,99525.70
2018-04-06T09:29:49.490Z,99525.09
2018-04-06T09:32:17.327Z,99526.83
2018-04-06T09:34:44.942Z,99528.27
2018-04-06T09:37:12.510Z,99526.44
2018-04-06T09:39:40.134Z,99524.90
2018-04-06T09:42:07.757Z,99531.31
2018-04-06T09:44:35.340Z,99531.36
2018-04-06T09:47:02.910Z,99528.05
2018-04-06T09:49:30.591Z,99524.40
2018-04-06T09:51:58.253Z,99522.34
2018-04-06T09:54:25.951Z,99526.73
2018-04-06T09:56:53.774Z,99516.81
2018-04-06T09:59:21.433Z,99515.49
2018-04-06T10:01:49.159Z,99515.16
2018-04-06T10:04:16.988Z,99506.77
2018-04-06T10:06:44.606Z,99512.36
2018-04-06T10:09:12.304Z,99509.33
2018-04-06T10:11:39.954Z,99514.68
2018-04-06T10:14:07.533Z,99522.65
2018-04-06T10:16:35.111Z,99521.83
2018-04-06T10:19:02.760Z,99518.64
2018-04-06T10:21:30.336Z,99520.95
2018-04-06T10:23:57.939Z,99526.09
2018-04-06T10:26:25.573Z,99516.92
2018-04-06T10:28:53.198Z,99518.55
2018-04-06T10:31:21.042Z,99527.52
2018-04-06T10:33:48.721Z,99528.38
2018-04-06T10:36:16.303Z,99528.38
2018-04-06T10:38:44.046Z,99527.37
2018-04-06T10:41:11.785Z,99520.17
2018-04-06T10:43:39.544Z,99525.05
2018-04-06T10:46:07.447Z,99519.96
2018-04-06T10:48:35.099Z,99528.25
2018-04-06T10:51:02.694Z,99525.39
2018-04-06T10:53:30.293Z,99527.57
2018-04-06T10:55:58.013Z,99525.37
2018-04-06T10:58:25.598Z,99520.00
2018-04-06T11:00:53.185Z,99523.81
2018-04-06T11:03:20.869Z,99522.95
2018-04-06T11:05:48.531Z,99521.70
2018-04-06T11:08:16.204Z,99522.92
2018-04-06T11:10:44.045Z,99526.50
2018-04-06T11:13:11.622Z,99522.22
2018-04-06T11:15:39.390Z,99530.69
2018-04-06T11:18:06.989Z,99523.70
2018-04-06T11:20:34.567Z,99537.95
2018-04-06T11:23:02.197Z,99535.31
2018-04-06T11:25:30.070Z,99526.92
2018-04-06T11:27:57.903Z,99517.14
2018-04-06T11:30:25.472Z,99528.63
2018-04-06T11:32:53.231Z,99526.68
2018-04-06T11:35:20.800Z,99527.89
2018-04-06T11:37:48.548Z,99536.05
2018-04-06T11:40:16.214Z,99529.02
2018-04-06T11:42:43.840Z,99532.53
2018-04-06T11:45:11.449Z,99537.27
2018-04-06T11:47:39.083Z,99539.78
2018-04-06T11:50:06.856Z,99532.88
2018-04-06T11:52:34.703Z,99533.12
2018-04-06T11:55:02.393Z,99534.23
2018-04-06T11:57:30.058Z,99529.02
2018-04-06T11:59:57.649Z,99535.36
2018-04-06T12:02:25.381Z,99532.19
2018-04-06T12:04:53.025Z,99527.19
2018-04-06T12:07:20.626Z,99527.38
2018-04-06T12:09:48.359Z,99524.90
2018-04-06T12:12:15.938Z,99532.26
2018-04-06T12:14:43.886Z,99536.02
2018-04-06T12:17:11.604Z,99536.83
2018-04-06T12:19:39.632Z,99543.19
2018-04-06T12:22:07.499Z,99545.48
2018-04-06T12:24:35.151Z,99538.28
2018-04-06T12:27:02.850Z,99543.95
2018-04-06T12:29:30.469Z,99548.44
2018-04-06T12:31:58.106Z,99548.48
2018-04-06T12:34:25.811Z,99540.11
2018-04-06T12:36:53.394Z,99549.20
2018-04-06T12:39:20.998Z,99556.17
2018-04-06T12:41:48.595Z,99560.83
2018-04-06T12:44:17.110Z,99566.56
2018-04-06T12:46:44.732Z,99572.96
2018-04-06T12:49:12.404Z,99574.69
2018-04-06T12:51:39.977Z,99573.24
2018-04-06T12:54:07.619Z,99573.40
2018-04-06T12:56:35.198Z,99579.18
2018-04-06T12:59:02.788Z,99582.13
2018-04-06T13:01:30.405Z,99578.74
2018-04-06T13:03:57.974Z,99583.55
2018-04-06T13:06:25.570Z,99582.93
2018-04-06T13:08:53.182Z,99588.53
2018-04-06T13:11:20.764Z,99590.41
2018-04-06T13:13:48.339Z,99594.03
2018-04-06T13:16:15.950Z,99593.05
2018-04-06T13:18:43.592Z,99591.98
2018-04-06T13:21:11.181Z,99591.98
2018-04-06T13:23:38.791Z,99592.53
2018-04-06T13:26:07.068Z,99593.32
2018-04-06T13:28:34.677Z,99591.38
2018-04-06T13:31:02.316Z,99585.81
2018-04-06T13:33:29.903Z,99589.59
2018-04-06T13:35:57.484Z,99591.61
2018-04-06T13:38:25.092Z,99587.86
2018-04-06T13:40:52.691Z,99596.25
2018-04-06T13:43:20.274Z,99596.33
2018-04-06T13:45:47.881Z,99596.87
2018-04-06T13:48:15.535Z,99606.50
2018-04-06T13:50:43.122Z,99609.05
2018-04-06T13:53:10.719Z,99612.77
2018-04-06T13:55:38.337Z,99611.80
2018-04-06T13:58:07.194Z,99609.85
2018-04-06T14:00:37.570Z,99620.61
2018-04-06T14:03:07.379Z,99618.97
2018-04-06T14:05:38.897Z,99610.46
2018-04-06T14:08:10.771Z,99619.31
2018-04-06T14:10:40.588Z,99603.66
2018-04-06T14:13:08.244Z,99625.33
2018-04-06T14:15:35.859Z,99624.38
2018-04-06T14:18:03.490Z,99631.75
2018-04-06T14:20:31.123Z,99626.39
2018-04-06T14:22:58.705Z,99625.88
2018-04-06T14:25:26.358Z,99617.23
2018-04-06T14:27:53.928Z,99612.56
2018-04-06T14:30:21.532Z,99612.12
2018-04-06T14:32:49.175Z,99613.23
2018-04-06T14:35:16.762Z,99616.62
2018-04-06T14:37:44.356Z,99617.32
2018-04-06T14:40:11.995Z,99612.42
2018-04-06T14:42:39.585Z,99624.28
2018-04-06T14:45:07.194Z,99619.55
2018-04-06T14:47:34.831Z,99622.16
2018-04-06T14:50:02.483Z,99618.59
2018-04-06T14:52:30.094Z,99625.88
2018-04-06T14:54:57.711Z,99616.31
2018-04-06T14:57:25.331Z,99612.65
2018-04-06T14:59:53.047Z,99612.63
2018-04-06T15:02:20.703Z,99610.77
2018-04-06T15:04:48.342Z,99612.77
2018-04-06T15:07:15.904Z,99619.41
2018-04-06T15:09:43.688Z,99627.51
2018-04-06T15:12:11.262Z,99632.37
2018-04-06T15:14:38.839Z,99629.15
2018-04-06T15:17:06.445Z,99624.44
2018-04-06T15:19:35.146Z,99624.59
2018-04-06T15:22:02.724Z,99626.05
2018-04-06T15:24:30.357Z,99631.75
2018-04-06T15:26:57.943Z,99636.92
2018-04-06T15:29:25.623Z,99638.84
2018-04-06T15:31:53.263Z,99641.25
2018-04-06T15:34:21.115Z,99639.81
2018-04-06T15:36:48.702Z,99647.64
2018-04-06T15:39:16.373Z,99646.59
2018-04-06T15:41:43.956Z,99642.39
2018-04-06T15:44:11.635Z,99650.64
2018-04-06T15:46:39.296Z,99650.89
2018-04-06T15:49:06.901Z,99658.36
2018-04-06T15:51:34.510Z,99665.80
2018-04-06T15:54:02.137Z,99670.41
2018-04-06T15:56:29.738Z,99677.56
2018-04-06T15:58:57.343Z,99675.79
2018-04-06T16:01:25.021Z,99687.16
2018-04-06T16:03:52.614Z,99685.95
2018-04-06T16:06:20.256Z,99687.30
2018-04-06T16:08:47.905Z,99690.30
2018-04-06T16:11:15.533Z,99689.62
2018-04-06T16:13:43.190Z,99690.95
2018-04-06T16:16:10.803Z,99694.45
2018-04-06T16:18:38.929Z,99678.00
2018-04-06T16:21:06.527Z,99698.09
2018-04-06T16:23:34.151Z,99704.06
2018-04-06T16:26:01.741Z,99710.16
2018-04-06T16:28:29.313Z,99713.38
2018-04-06T16:30:56.930Z,99721.78
2018-04-06T16:33:24.506Z,99726.93
2018-04-06T16:35:52.279Z,99726.76
2018-04-06T16:38:19.912Z,99726.45
2018-04-06T16:40:47.841Z,99730.23
2018-04-06T16:43:15.430Z,99734.30
2018-04-06T16:45:43.047Z,99730.97
2018-04-06T16:48:10.619Z,99739.45
2018-04-06T16:50:38.209Z,99746.59
2018-04-06T16:53:05.836Z,99750.92
2018-04-06T16:55:33.432Z,99755.53
2018-04-06T16:58:01.033Z,99758.50
2018-04-06T17:00:28.654Z,99767.93
2018-04-06T17:02:56.232Z,99768.52
2018-04-06T17:05:24.148Z,99763.95
2018-04-06T17:07:52.196Z,99770.73
2018-04-06T17:10:19.793Z,99777.65
2018-04-06T17:12:47.365Z,99779.67
2018-04-06T17:15:14.975Z,99783.69
2018-04-06T17:17:42.561Z,99786.93
2018-04-06T17:20:10.152Z,99791.66
2018-04-06T17:22:37.771Z,99796.67
2018-04-06T17:25:05.457Z,99809.67
2018-04-06T17:27:33.067Z,99803.39
2018-04-06T17:30:00.694Z,99815.45
2018-04-06T17:32:28.283Z,99816.67
2018-04-06T17:34:55.885Z,99818.39
2018-04-06T17:37:23.531Z,99822.70
2018-04-06T17:39:51.133Z,99823.73
2018-04-06T17:42:18.735Z,99833.12
2018-04-06T17:44:46.359Z,99840.49
2018-04-06T17:47:13.958Z,99844.16
2018-04-06T17:49:41.544Z,99843.84
2018-04-06T17:52:09.175Z,99853.72
2018-04-06T17:54:36.960Z,99855.34
2018-04-06T17:57:04.623Z,99847.08
2018-04-06T17:59:32.259Z,99860.05
2018-04-06T18:02:00.134Z,99864.92
2018-04-06T18:04:27.815Z,99867.50
2018-04-06T18:06:55.562Z,99873.95
2018-04-06T18:09:23.142Z,99885.91
2018-04-06T18:11:50.785Z,99884.63
2018-04-06T18:14:18.466Z,99886.25
2018-04-06T18:16:46.109Z,99890.70
2018-04-06T18:19:13.761Z,99892.22
2018-04-06T18:21:41.393Z,99884.55
2018-04-06T18:24:08.990Z,99897.50
2018-04-06T18:26:36.592Z,99898.85
2018-04-06T18:29:04.221Z,99900.45
2018-04-06T18:31:31.895Z,99905.06
2018-04-06T18:33:59.711Z,99904.16
2018-04-06T18:36:27.359Z,99909.84
2018-04-06T18:38:54.952Z,99908.58
2018-04-06T18:41:22.554Z,99908.26
2018-04-06T18:43:50.213Z,99910.50
2018-04-06T18:46:17.816Z,99910.69
2018-04-06T18:48:45.415Z,99907.38
2018-04-06T18:51:13.038Z,99915.52
2018-04-06T18:53:40.670Z,99922.72
2018-04-06T18:56:08.300Z,99922.75
2018-04-06T18:58:35.898Z,99929.00
2018-04-06T19:01:03.470Z,99924.84
2018-04-06T19:03:31.063Z,99929.57
2018-04-06T19:05:58.801Z,99927.84
2018-04-06T19:08:26.418Z,99931.44
2018-04-06T19:10:53.990Z,99929.27
2018-04-06T19:13:21.643Z,99938.38
2018-04-06T19:15:49.609Z,99946.28
2018-04-06T19:18:17.191Z,99943.30
2018-04-06T19:20:44.939Z,99944.43
2018-04-06T19:23:12.524Z,99950.96
2018-04-06T19:25:40.122Z,99951.70
2018-04-06T19:28:07.923Z,99952.41
2018-04-06T19:30:35.772Z,99960.31
2018-04-06T19:33:03.442Z,99966.83
2018-04-06T19:35:31.109Z,99964.50
2018-04-06T19:37:58.688Z,99959.42
2018-04-06T19:40:26.262Z,99975.45
2018-04-06T19:42:54.090Z,99982.92
2018-04-06T19:45:21.768Z,99968.00
2018-04-06T19:47:49.427Z,99975.23
2018-04-06T19:50:17.062Z,99968.45
2018-04-06T19:52:44.639Z,99973.23
2018-04-06T19:55:12.405Z,99976.81
2018-04-06T19:57:40.078Z,99976.17
2018-04-06T20:00:07.800Z,99971.15
2018-04-06T20:02:35.566Z,99982.72
2018-04-06T20:05:03.267Z,99982.45
2018-04-06T20:07:30.973Z,99983.80
2018-04-06T20:09:58.784Z,99986.78
2018-04-06T20:12:26.410Z,99985.92
2018-04-06T20:14:54.106Z,99989.72
2018-04-06T20:17:21.698Z,99989.44
2018-04-06T20:19:49.327Z,99995.61
2018-04-06T20:22:16.914Z,100003.47
2018-04-06T20:24:44.561Z,100000.17
2018-04-06T20:27:12.429Z,100004.88
2018-04-06T20:29:40.284Z,100007.64
2018-04-06T20:32:07.968Z,100005.62
2018-04-06T20:34:35.887Z,100011.08
2018-04-06T20:37:03.478Z,100013.45
2018-04-06T20:39:31.075Z,100014.00
2018-04-06T20:41:58.699Z,100012.66
2018-04-06T20:44:26.321Z,100018.17
2018-04-06T20:46:53.923Z,100018.52
2018-04-06T20:49:21.563Z,100019.11
2018-04-06T20:51:49.462Z,100019.33
2018-04-06T20:54:17.124Z,100011.69
2018-04-06T20:56:44.741Z,100014.52
2018-04-06T20:59:12.324Z,100017.02
2018-04-06T21:01:39.937Z,100017.83
2018-04-06T21:04:07.962Z,100022.29
2018-04-06T21:06:35.599Z,100025.46
2018-04-06T21:09:03.189Z,100030.26
2018-04-06T21:11:30.822Z,100030.09
2018-04-06T21:13:58.406Z,100036.59
2018-04-06T21:16:25.991Z,100039.12
2018-04-06T21:18:53.751Z,100042.11
2018-04-06T21:21:21.337Z,100041.16
2018-04-06T21:23:49.074Z,100039.29
2018-04-06T21:26:16.730Z,100037.78
2018-04-06T21:28:44.355Z,100044.52
2018-04-06T21:31:12.061Z,100037.66
2018-04-06T21:33:39.722Z,100045.80
2018-04-06T21:36:07.374Z,100037.37
2018-04-06T21:38:35.000Z,100040.27
2018-04-06T21:41:02.915Z,100045.84
2018-04-06T21:43:30.628Z,100044.98
2018-04-06T21:45:58.377Z,100051.35
2018-04-06T21:48:26.100Z,100051.59
2018-04-06T21:50:53.680Z,100052.58
2018-04-06T21:53:21.274Z,100058.75
2018-04-06T21:55:49.082Z,100057.33
2018-04-06T21:58:16.683Z,100051.31
2018-04-06T22:00:44.287Z,100062.42
2018-04-06T22:03:12.106Z,100063.56
2018-04-06T22:05:39.945Z,100067.37
2018-04-06T22:08:07.607Z,100067.49
2018-04-06T22:10:35.306Z,100069.95
2018-04-06T22:13:03.042Z,100068.77
2018-04-06T22:15:30.907Z,100067.90
2018-04-06T22:17:58.523Z,100069.90
2018-04-06T22:20:26.123Z,100066.72
2018-04-06T22:22:53.851Z,100069.94
2018-04-06T22:25:21.692Z,100071.16
2018-04-06T22:27:49.728Z,100070.30
2018-04-06T22:30:17.585Z,100068.05
2018-04-06T22:32:45.256Z,100056.64
2018-04-06T22:35:12.958Z,100066.45
2018-04-06T22:37:40.772Z,100069.68
2018-04-06T22:40:08.655Z,100073.53
2018-04-06T22:42:36.282Z,100074.96
2018-04-06T22:45:03.972Z,100072.55
2018-04-06T22:47:31.573Z,100085.47
2018-04-06T22:49:59.293Z,100081.95
2018-04-06T22:52:26.860Z,100080.56
2018-04-06T22:54:54.466Z,100093.34
2018-04-06T22:57:22.057Z,100088.94
2018-04-06T22:59:49.950Z,100089.64
2018-04-06T23:02:17.802Z,100087.84
2018-04-06T23:04:45.378Z,100086.37
2018-04-06T23:07:13.006Z,100090.11
2018-04-06T23:09:40.702Z,100089.18
2018-04-06T23:12:08.311Z,100083.12
2018-04-06T23:14:36.024Z,100083.19
2018-04-06T23:17:03.686Z,100092.91
2018-04-06T23:19:31.256Z,100094.17
2018-04-06T23:21:58.846Z,100094.09
2018-04-06T23:24:26.654Z,100092.41
2018-04-06T23:26:54.759Z,100090.42
2018-04-06T23:29:22.332Z,100083.06
2018-04-06T23:31:50.167Z,100086.08
2018-04-06T23:34:17.793Z,100079.80
2018-04-06T23:36:45.603Z,100090.58
2018-04-06T23:39:13.260Z,100086.09
2018-04-06T23:41:41.004Z,100090.34
2018-04-06T23:44:08.584Z,100095.57
2018-04-06T23:46:36.323Z,100089.28
2018-04-06T23:49:03.912Z,100092.11
2018-04-06T23:51:31.678Z,100095.94
2018-04-06T23:53:59.308Z,100095.30
2018-04-06T23:56:26.897Z,100099.46
2018-04-06T23:58:54.854Z,100106.54
